LBSF

Sofia Airport

Sofia, Bulgaria
TAF LBSF 160500Z 1606/1706 27006KT 9999 SCT050 TEMPO 1700/1706 4000 BR
Issued Valid From Valid To
Feb-16 @ 05:00 UTC
(6 hours ago)
Feb-16 @ 06:00 UTC
(5 hours ago)
Feb-17 @ 06:00 UTC
(in 19 hours)
Feb-16 @ 06:00 to Feb-17 @ 06:00
TAF LBSF 160500Z 1606/1706 27006KT 9999 SCT050
Wind Visibility Clouds
270° at 6 knots 10,000+ meters
  • Scattered at 5,000' AGL
Temporary Feb-17 @ 00:00 to Feb-17 @ 06:00
TEMPO 1700/1706 4000 BR
Visibility Conditions
4,007 meters
  • Mist
TAF LBSF 160500Z 1606/1706 27006KT 9999 SCT050 TEMPO 1700/1706 4000 BR
Issued Feb-16 @ 05:00 UTC
(6 hours ago)
Valid From Feb-16 @ 06:00 UTC
(5 hours ago)
Valid To Feb-17 @ 06:00 UTC
(in 19 hours)
Feb-16 @ 06:00 - Feb-17 @ 06:00
Wind Visibility
270° at 6 knots 10,000+ meters
Clouds
  • Scattered at 5,000' AGL
Temporary Feb-17 @ 00:00 - Feb-17 @ 06:00
Conditions
  • Mist